Time;durP1;ratioP1;P1;durP2;ratioP2;P2;SDS_P1;SDS_P2;PMS_P1;PMS_P2;Temp;Humidity;BMP_temperature;BMP_pressure;BME280_temperature;BME280_humidity;BME280_pressure;Samples;Min_cycle;Max_cycle;Signal;HPM_P1;HPM_P2
2023/12/21 00:00:12;;;;;;;4.25;2.10;;;;;;;6.31;99.88;99659.69;6082388;23;20576;-89
2023/12/21 00:02:39;;;;;;;5.45;1.75;;;;;;;6.33;99.81;99660.41;6059263;23;20101;-90
2023/12/21 00:05:07;;;;;;;3.85;1.33;;;;;;;6.31;100.00;99657.06;6036012;23;20062;-89
2023/12/21 00:07:34;;;;;;;6.80;2.72;;;;;;;6.27;100.00;99648.50;6082472;23;20345;-90
2023/12/21 00:10:01;;;;;;;4.68;1.70;;;;;;;6.28;100.00;99646.72;6106757;23;20477;-90
2023/12/21 00:12:28;;;;;;;7.35;1.95;;;;;;;6.30;100.00;99652.72;6058767;23;20395;-90
2023/12/21 00:14:55;;;;;;;4.50;1.60;;;;;;;6.32;100.00;99663.16;6083102;23;20018;-89
2023/12/21 00:17:22;;;;;;;5.10;2.70;;;;;;;6.29;100.00;99657.16;6082635;23;20034;-90
2023/12/21 00:19:49;;;;;;;6.05;2.00;;;;;;;6.33;100.00;99656.91;6107850;23;20026;-89
2023/12/21 00:22:21;;;;;;;8.68;2.70;;;;;;;6.24;100.00;99661.09;6058868;23;20042;-90
2023/12/21 00:24:48;;;;;;;2.80;1.38;;;;;;;6.27;100.00;99666.13;6035862;23;20029;-89
2023/12/21 00:27:14;;;;;;;7.88;2.40;;;;;;;6.28;100.00;99666.03;6058332;23;20077;-88
2023/12/21 00:29:41;;;;;;;6.38;2.63;;;;;;;6.27;100.00;99650.31;6106982;23;20458;-89
2023/12/21 00:32:08;;;;;;;6.03;1.80;;;;;;;6.28;100.00;99651.97;6083604;23;20014;-88
2023/12/21 00:34:38;;;;;;;5.03;1.98;;;;;;;6.30;100.00;99664.09;6059235;23;20098;-89
2023/12/21 00:37:05;;;;;;;5.00;1.45;;;;;;;6.29;100.00;99659.78;6058757;23;20027;-89
2023/12/21 00:39:32;;;;;;;5.72;1.95;;;;;;;6.32;100.00;99657.88;6059079;23;20112;-90
2023/12/21 00:41:59;;;;;;;3.70;1.52;;;;;;;6.33;100.00;99641.09;6058746;23;20026;-89
2023/12/21 00:44:26;;;;;;;5.20;1.70;;;;;;;6.33;100.00;99655.13;6107099;23;20354;-89
2023/12/21 00:46:53;;;;;;;6.13;1.60;;;;;;;6.34;100.00;99638.38;6083151;23;20022;-89
2023/12/21 00:49:19;;;;;;;4.72;1.83;;;;;;;6.29;100.00;99620.25;6107190;23;20043;-89
2023/12/21 00:51:46;;;;;;;5.53;2.33;;;;;;;6.33;100.00;99614.72;6082370;23;20026;-89
2023/12/21 00:54:13;;;;;;;8.07;2.75;;;;;;;6.33;100.00;99605.00;6059200;23;20567;-89
2023/12/21 00:56:40;;;;;;;6.57;1.58;;;;;;;6.35;100.00;99597.84;6107277;23;20089;-89
2023/12/21 00:59:07;;;;;;;5.53;1.80;;;;;;;6.32;100.00;99581.41;6106215;23;20030;-89
2023/12/21 01:01:34;;;;;;;1.92;1.10;;;;;;;6.31;100.00;99580.59;6035991;23;20332;-89
2023/12/21 01:04:01;;;;;;;2.80;1.23;;;;;;;6.35;100.00;99568.00;6082785;23;20026;-88
2023/12/21 01:06:28;;;;;;;2.47;1.50;;;;;;;6.35;100.00;99562.72;6058103;23;20376;-90
2023/12/21 01:08:54;;;;;;;3.38;1.30;;;;;;;6.34;100.00;99568.97;6058863;23;20029;-89
2023/12/21 01:11:21;;;;;;;4.13;1.42;;;;;;;6.33;100.00;99564.63;6034504;23;20518;-90
2023/12/21 01:13:48;;;;;;;1.65;1.17;;;;;;;6.34;100.00;99555.78;6108038;23;20067;-90
2023/12/21 01:16:16;;;;;;;2.75;0.98;;;;;;;6.34;100.00;99550.50;6082410;23;20027;-90
2023/12/21 01:18:43;;;;;;;2.10;1.35;;;;;;;6.33;100.00;99540.91;6035109;23;20019;-89
2023/12/21 01:21:10;;;;;;;1.35;1.10;;;;;;;6.33;100.00;99547.00;6034281;23;20053;-88
2023/12/21 01:23:37;;;;;;;3.05;1.08;;;;;;;6.30;100.00;99537.53;6061087;23;20038;-88
2023/12/21 01:26:04;;;;;;;3.88;1.20;;;;;;;6.32;100.00;99526.03;6108479;23;20029;-89
2023/12/21 01:28:31;;;;;;;3.22;1.23;;;;;;;6.33;100.00;99546.16;6083672;23;20406;-89
2023/12/21 01:30:58;;;;;;;1.73;1.25;;;;;;;6.29;100.00;99540.28;6108062;23;20031;-90
2023/12/21 01:33:25;;;;;;;2.90;1.20;;;;;;;6.33;100.00;99540.91;6036588;23;20331;-89
2023/12/21 01:35:52;;;;;;;1.75;0.80;;;;;;;6.31;100.00;99519.94;6109422;23;20023;-89
2023/12/21 01:38:19;;;;;;;3.42;1.27;;;;;;;6.33;100.00;99523.25;6082951;23;20044;-90
2023/12/21 01:40:46;;;;;;;4.90;1.42;;;;;;;6.35;100.00;99520.53;6083399;23;20903;-91
2023/12/21 01:43:13;;;;;;;1.35;1.08;;;;;;;6.36;100.00;99519.56;6084387;23;20022;-90
2023/12/21 01:45:40;;;;;;;3.50;1.08;;;;;;;6.34;100.00;99497.75;6060725;23;20046;-91
2023/12/21 01:48:07;;;;;;;3.00;0.90;;;;;;;6.36;100.00;99498.47;6107980;23;20026;-89
2023/12/21 01:50:34;;;;;;;3.40;1.00;;;;;;;6.35;100.00;99507.34;6036344;23;20068;-90
2023/12/21 01:53:02;;;;;;;1.35;1.00;;;;;;;6.36;100.00;99504.59;6084260;23;20045;-90
2023/12/21 01:55:29;;;;;;;2.10;0.98;;;;;;;6.39;100.00;99509.63;6108035;23;20026;-90
2023/12/21 01:57:57;;;;;;;2.53;0.93;;;;;;;6.39;100.00;99496.44;6108665;23;20021;-89
2023/12/21 02:00:24;;;;;;;2.50;1.10;;;;;;;6.41;100.00;99499.81;6059827;23;20030;-90
2023/12/21 02:02:51;;;;;;;7.18;1.25;;;;;;;6.43;100.00;99494.41;6060821;23;20044;-90
2023/12/21 02:05:18;;;;;;;1.70;0.82;;;;;;;6.40;100.00;99481.47;6060802;23;20112;-91
2023/12/21 02:07:45;;;;;;;2.17;0.90;;;;;;;6.43;100.00;99481.22;6108472;23;20473;-90
2023/12/21 02:10:12;;;;;;;2.40;1.30;;;;;;;6.43;100.00;99481.22;6036202;23;20050;-90
2023/12/21 02:12:39;;;;;;;2.28;1.30;;;;;;;6.40;100.00;99482.28;6060676;23;20030;-90
2023/12/21 02:15:07;;;;;;;1.55;0.65;;;;;;;6.42;100.00;99464.56;6060776;23;20470;-90
2023/12/21 02:17:34;;;;;;;2.58;1.08;;;;;;;6.40;100.00;99460.34;6083359;23;20026;-90
2023/12/21 02:20:01;;;;;;;1.45;0.82;;;;;;;6.43;100.00;99466.22;6107975;23;20356;-89
2023/12/21 02:22:28;;;;;;;2.10;0.88;;;;;;;6.37;100.00;99444.78;6060091;23;20806;-90
2023/12/21 02:24:55;;;;;;;1.90;0.95;;;;;;;6.42;100.00;99443.47;6037339;23;20045;-90
2023/12/21 02:27:22;;;;;;;1.55;0.93;;;;;;;6.43;100.00;99439.03;6060280;23;20030;-90
2023/12/21 02:29:49;;;;;;;1.10;0.88;;;;;;;6.43;100.00;99431.94;6083498;23;20316;-90
2023/12/21 02:32:16;;;;;;;1.38;0.90;;;;;;;6.35;100.00;99436.13;6058888;23;20041;-90
2023/12/21 02:34:43;;;;;;;1.02;0.90;;;;;;;6.43;100.00;99433.75;6083057;23;20030;-90
2023/12/21 02:37:10;;;;;;;2.92;0.98;;;;;;;6.46;100.00;99441.41;6082982;23;20082;-91
2023/12/21 02:39:37;;;;;;;1.38;1.02;;;;;;;6.46;100.00;99428.22;6035637;23;20022;-90
2023/12/21 02:42:04;;;;;;;1.85;0.70;;;;;;;6.44;100.00;99422.25;6084771;23;20470;-91
2023/12/21 02:44:31;;;;;;;2.83;0.80;;;;;;;6.46;100.00;99417.66;6036031;23;20037;-92
2023/12/21 02:46:58;;;;;;;1.10;0.75;;;;;;;6.46;100.00;99410.63;6083566;23;20022;-91
2023/12/21 02:49:25;;;;;;;2.38;0.80;;;;;;;6.50;100.00;99398.84;6082719;23;20026;-90
2023/12/21 02:51:52;;;;;;;2.60;0.80;;;;;;;6.49;100.00;99386.63;6059770;23;20435;-92
2023/12/21 02:54:19;;;;;;;1.50;0.80;;;;;;;6.51;100.00;99376.81;6060196;23;20518;-93
2023/12/21 02:56:46;;;;;;;1.85;0.98;;;;;;;6.51;100.00;99381.22;6109371;23;20026;-91
2023/12/21 02:59:13;;;;;;;2.13;1.30;;;;;;;6.53;100.00;99374.03;6082899;23;20022;-90
2023/12/21 03:01:42;;;;;;;1.10;0.68;;;;;;;6.57;100.00;99367.56;6082037;23;20035;-91
2023/12/21 03:04:11;;;;;;;1.17;0.77;;;;;;;6.52;100.00;99364.47;6082895;23;20041;-89
2023/12/21 03:06:37;;;;;;;1.17;0.70;;;;;;;6.55;100.00;99366.00;6060335;23;20571;-90
2023/12/21 03:09:04;;;;;;;3.50;0.68;;;;;;;6.56;100.00;99365.03;6059854;23;20525;-90
2023/12/21 03:11:32;;;;;;;2.20;0.75;;;;;;;6.56;100.00;99357.97;6107506;23;20420;-89
2023/12/21 03:13:59;;;;;;;1.00;0.77;;;;;;;6.53;100.00;99361.69;6107873;23;20447;-91
2023/12/21 03:16:26;;;;;;;1.02;1.02;;;;;;;6.55;100.00;99356.28;6059808;23;20082;-90
2023/12/21 03:18:53;;;;;;;0.88;0.80;;;;;;;6.50;100.00;99359.28;6083153;23;20030;-91
2023/12/21 03:21:20;;;;;;;1.65;0.65;;;;;;;6.56;100.00;99357.97;6082475;23;20481;-90
2023/12/21 03:23:46;;;;;;;3.90;1.55;;;;;;;6.55;100.00;99345.75;6059880;23;20348;-90
2023/12/21 03:26:13;;;;;;;0.70;0.70;;;;;;;6.60;100.00;99343.56;6082414;23;20030;-90
2023/12/21 03:28:44;;;;;;;1.92;0.73;;;;;;;6.59;100.00;99333.13;6083639;23;20026;-91
2023/12/21 03:31:12;;;;;;;2.45;0.90;;;;;;;6.61;100.00;99342.59;6035647;23;20391;-92
2023/12/21 03:33:39;;;;;;;2.35;0.80;;;;;;;6.60;100.00;99321.63;6060173;23;20102;-92
2023/12/21 03:36:06;;;;;;;3.67;0.90;;;;;;;6.62;100.00;99325.84;6060073;23;20038;-90
2023/12/21 03:38:33;;;;;;;2.55;0.70;;;;;;;6.63;100.00;99335.41;6084387;23;20085;-91
2023/12/21 03:40:59;;;;;;;0.77;0.70;;;;;;;6.62;100.00;99338.19;6060257;23;20041;-92
2023/12/21 03:43:26;;;;;;;2.10;0.77;;;;;;;6.62;100.00;99323.19;6060301;23;20657;-92
2023/12/21 03:45:57;;;;;;;2.00;0.80;;;;;;;6.61;100.00;99321.50;6060029;23;21184;-92
2023/12/21 03:48:24;;;;;;;2.00;0.77;;;;;;;6.62;100.00;99317.09;6082734;23;20037;-91
2023/12/21 03:50:51;;;;;;;0.50;0.50;;;;;;;6.63;100.00;99322.22;6057956;23;20026;-91
2023/12/21 03:53:18;;;;;;;2.13;0.98;;;;;;;6.60;100.00;99305.81;6058868;23;20029;-88
2023/12/21 03:55:45;;;;;;;1.20;0.80;;;;;;;6.59;100.00;99331.34;6036349;23;20509;-90
2023/12/21 03:58:11;;;;;;;1.35;0.80;;;;;;;6.62;100.00;99322.38;6082490;23;20026;-90
2023/12/21 04:00:38;;;;;;;1.65;0.63;;;;;;;6.63;100.00;99297.66;6107327;23;20081;-90
2023/12/21 04:03:05;;;;;;;0.77;0.70;;;;;;;6.60;100.00;99297.91;6083889;23;20018;-90
2023/12/21 04:05:32;;;;;;;1.08;0.70;;;;;;;6.61;100.00;99304.84;6106942;23;20096;-90
2023/12/21 04:07:59;;;;;;;1.42;0.65;;;;;;;6.58;100.00;99297.19;6059423;23;20022;-90
2023/12/21 04:10:26;;;;;;;3.20;0.60;;;;;;;6.61;100.00;99292.47;6082317;23;20029;-89
2023/12/21 04:12:52;;;;;;;0.85;0.70;;;;;;;6.61;100.00;99278.47;6064209;23;20029;-89
2023/12/21 04:15:20;;;;;;;0.43;0.43;;;;;;;6.61;100.00;99281.09;6087015;23;20023;-88
2023/12/21 04:17:47;;;;;;;1.23;0.90;;;;;;;6.61;100.00;99281.09;6082703;23;20018;-88
2023/12/21 04:20:14;;;;;;;1.88;0.90;;;;;;;6.60;100.00;99274.16;6033985;23;20034;-90
2023/12/21 04:22:41;;;;;;;1.00;0.55;;;;;;;6.61;100.00;99254.72;6058008;23;20026;-89
2023/12/21 04:25:08;;;;;;;3.53;0.80;;;;;;;6.63;100.00;99258.06;6057312;23;20048;-88
2023/12/21 04:27:35;;;;;;;1.45;0.95;;;;;;;6.62;100.00;99262.50;6106028;23;20521;-85
2023/12/21 04:30:03;;;;;;;0.60;0.60;;;;;;;6.61;100.00;99258.19;6057973;23;20081;-85
2023/12/21 04:32:30;;;;;;;0.65;0.57;;;;;;;6.65;100.00;99259.63;6081572;23;20690;-86
2023/12/21 04:34:57;;;;;;;0.57;0.50;;;;;;;6.61;100.00;99250.28;6058568;23;20022;-88
2023/12/21 04:37:25;;;;;;;2.28;0.50;;;;;;;6.64;100.00;99247.41;6082372;23;20030;-86
2023/12/21 04:39:51;;;;;;;0.57;0.57;;;;;;;6.66;100.00;99263.94;6081527;23;20031;-86
2023/12/21 04:42:18;;;;;;;0.85;0.70;;;;;;;6.64;100.00;99259.72;6082520;23;20025;-86
2023/12/21 04:44:45;;;;;;;2.35;0.52;;;;;;;6.67;100.00;99241.88;6059062;23;20093;-86
2023/12/21 04:47:12;;;;;;;2.45;0.73;;;;;;;6.68;100.00;99222.44;6058327;23;20018;-86
2023/12/21 04:49:50;;;;;;;1.00;0.60;;;;;;;6.65;100.00;99214.78;6081881;23;20025;-88
2023/12/21 04:52:17;;;;;;;0.40;0.40;;;;;;;6.67;100.00;99214.66;6081043;23;20086;-85
2023/12/21 04:54:44;;;;;;;1.42;0.50;;;;;;;6.64;100.00;99210.47;6078220;23;20019;-86
2023/12/21 04:57:11;;;;;;;1.63;0.63;;;;;;;6.64;100.00;99207.84;6083266;23;20026;-88
2023/12/21 04:59:39;;;;;;;1.30;0.65;;;;;;;6.55;100.00;99223.56;6084157;23;20037;-88
2023/12/21 05:02:07;;;;;;;0.45;0.40;;;;;;;6.61;100.00;99228.34;6090120;23;20022;-86
2023/12/21 05:04:34;;;;;;;1.00;0.80;;;;;;;6.61;100.00;99218.63;6083703;23;20410;-85
2023/12/21 05:07:08;;;;;;;0.57;0.57;;;;;;;6.61;100.00;99220.41;6060694;23;20018;-85
2023/12/21 05:09:35;;;;;;;1.48;0.55;;;;;;;6.64;100.00;99210.47;6080567;23;20026;-86
2023/12/21 05:12:03;;;;;;;0.55;0.55;;;;;;;6.61;100.00;99218.63;6084284;23;20023;-85
2023/12/21 05:14:33;;;;;;;0.40;0.40;;;;;;;6.66;100.00;99207.69;6070786;23;20071;-85
2023/12/21 05:17:00;;;;;;;1.70;0.52;;;;;;;6.63;100.00;99211.41;6106946;23;20018;-85
2023/12/21 05:19:27;;;;;;;0.80;0.43;;;;;;;6.65;100.00;99203.38;6107171;23;20023;-86
2023/12/21 05:21:54;;;;;;;2.28;0.60;;;;;;;6.63;100.00;99206.16;6060278;23;20019;-85
2023/12/21 05:24:21;;;;;;;0.50;0.50;;;;;;;6.67;100.00;99177.72;6084406;23;20517;-86
2023/12/21 05:26:48;;;;;;;2.38;0.60;;;;;;;6.69;100.00;99181.03;6083549;23;20469;-84
2023/12/21 05:29:14;;;;;;;2.58;0.57;;;;;;;6.70;100.00;99185.38;6059790;23;20026;-84
2023/12/21 05:31:42;;;;;;;0.75;0.40;;;;;;;6.73;100.00;99185.94;6083431;23;20014;-85
2023/12/21 05:34:09;;;;;;;0.50;0.50;;;;;;;6.74;100.00;99168.31;6083250;23;20730;-85
2023/12/21 05:36:36;;;;;;;0.63;0.60;;;;;;;6.71;100.00;99164.13;6084349;23;20093;-85
2023/12/21 05:39:04;;;;;;;0.63;0.63;;;;;;;6.75;100.00;99172.63;6132359;23;20089;-89
2023/12/21 05:41:44;;;;;;;2.08;0.52;;;;;;;6.73;100.00;99151.66;6103789;23;20019;-86
2023/12/21 05:44:11;;;;;;;0.82;0.82;;;;;;;6.72;100.00;99154.44;6059313;23;20447;-86
2023/12/21 05:46:39;;;;;;;0.60;0.60;;;;;;;6.74;100.00;99150.72;6059943;23;20029;-86
2023/12/21 05:49:06;;;;;;;0.63;0.63;;;;;;;6.74;100.00;99132.22;6059432;23;20082;-86
2023/12/21 05:51:33;;;;;;;1.88;0.60;;;;;;;6.74;100.00;99129.59;6083889;23;20022;-86
2023/12/21 05:54:00;;;;;;;3.03;0.60;;;;;;;6.79;100.00;99152.09;6060022;23;20034;-85
2023/12/21 05:56:27;;;;;;;2.63;0.80;;;;;;;6.74;100.00;99132.22;6060283;23;20101;-86
2023/12/21 05:58:54;;;;;;;1.70;0.50;;;;;;;6.66;100.00;99136.47;6059519;23;20030;-86
2023/12/21 06:01:21;;;;;;;0.50;0.50;;;;;;;6.76;100.00;99134.72;6083005;23;20025;-87
2023/12/21 06:03:48;;;;;;;0.40;0.40;;;;;;;6.78;100.00;99111.69;6107925;23;20030;-86
2023/12/21 06:06:15;;;;;;;1.77;0.50;;;;;;;6.78;100.00;99119.59;6082702;23;20551;-86
2023/12/21 06:08:42;;;;;;;0.30;0.30;;;;;;;6.79;100.00;99113.34;6083506;23;20086;-86
2023/12/21 06:11:09;;;;;;;0.43;0.40;;;;;;;6.80;100.00;99091.28;6059766;23;20022;-86
2023/12/21 06:13:36;;;;;;;1.10;0.40;;;;;;;6.79;100.00;99094.88;6106529;23;20454;-86
2023/12/21 06:16:03;;;;;;;0.55;0.45;;;;;;;6.78;100.00;99087.13;6060065;23;20026;-86
2023/12/21 06:18:30;;;;;;;1.00;0.50;;;;;;;6.81;100.00;99074.47;6108329;23;20023;-86
2023/12/21 06:20:57;;;;;;;1.30;0.52;;;;;;;6.81;100.00;99076.28;6059410;23;20046;-86
2023/12/21 06:23:24;;;;;;;0.55;0.55;;;;;;;6.81;100.00;99085.03;6083965;23;20022;-85
2023/12/21 06:25:51;;;;;;;0.52;0.40;;;;;;;6.81;100.00;99105.31;6084110;23;20179;-86
2023/12/21 06:28:18;;;;;;;0.40;0.40;;;;;;;6.84;100.00;99087.41;6083522;23;20029;-86
2023/12/21 06:30:44;;;;;;;1.27;0.68;;;;;;;6.82;100.00;99068.25;6082660;23;20033;-86
2023/12/21 06:33:11;;;;;;;0.30;0.30;;;;;;;6.84;100.00;99073.38;6083875;23;20026;-85
2023/12/21 06:35:38;;;;;;;0.88;0.70;;;;;;;6.82;100.00;99085.88;6059700;23;20027;-86
2023/12/21 06:38:06;;;;;;;1.65;0.43;;;;;;;6.79;100.00;99075.59;6108266;23;20037;-84
2023/12/21 06:40:33;;;;;;;0.30;0.30;;;;;;;6.80;100.00;99077.28;6081444;23;20026;-81
2023/12/21 06:43:00;;;;;;;0.55;0.52;;;;;;;6.82;100.00;99070.03;6083424;23;20026;-82
2023/12/21 06:45:27;;;;;;;0.40;0.40;;;;;;;6.86;100.00;99058.25;6083850;23;20410;-81
2023/12/21 06:47:53;;;;;;;0.30;0.30;;;;;;;6.87;100.00;99065.19;6059616;23;20350;-82
2023/12/21 06:50:21;;;;;;;1.00;0.40;;;;;;;6.90;100.00;99064.97;6107075;23;20050;-82
2023/12/21 06:52:47;;;;;;;0.55;0.40;;;;;;;6.91;100.00;99046.34;6083409;23;20029;-81
2023/12/21 06:55:15;;;;;;;1.85;0.82;;;;;;;6.92;100.00;99052.44;6083067;23;20120;-81
2023/12/21 06:57:41;;;;;;;1.15;0.70;;;;;;;6.86;100.00;99043.25;6108175;23;20025;-81
2023/12/21 07:00:09;;;;;;;0.73;0.45;;;;;;;6.93;100.00;99048.84;6059871;23;20050;-81
2023/12/21 07:02:36;;;;;;;0.80;0.77;;;;;;;6.89;100.00;99061.47;6083653;23;20109;-81
2023/12/21 07:05:03;;;;;;;0.63;0.63;;;;;;;6.93;100.00;99060.25;6083301;23;20357;-83
2023/12/21 07:07:30;;;;;;;0.98;0.70;;;;;;;6.90;100.00;99044.69;6083475;23;20042;-81
2023/12/21 07:09:57;;;;;;;0.70;0.70;;;;;;;6.93;100.00;99043.59;6058787;23;20093;-82
2023/12/21 07:12:26;;;;;;;1.33;0.80;;;;;;;6.93;100.00;99033.84;6083826;23;20033;-81
2023/12/21 07:14:54;;;;;;;0.60;0.60;;;;;;;6.94;100.00;99035.50;6083913;23;20094;-82
2023/12/21 07:17:21;;;;;;;1.92;0.75;;;;;;;6.95;100.00;99031.09;6059817;23;20030;-82
2023/12/21 07:19:48;;;;;;;2.17;1.13;;;;;;;6.96;100.00;99024.84;6107747;23;20092;-83
2023/12/21 07:22:15;;;;;;;2.15;0.90;;;;;;;6.99;100.00;99010.53;6083657;23;20511;-81
2023/12/21 07:24:42;;;;;;;1.80;1.02;;;;;;;6.99;100.00;99008.72;6083891;23;20044;-82
2023/12/21 07:27:09;;;;;;;0.85;0.40;;;;;;;6.99;100.00;99015.81;6059379;23;20042;-82
2023/12/21 07:29:35;;;;;;;0.77;0.55;;;;;;;7.00;100.00;99009.59;6082903;23;20354;-81
2023/12/21 07:32:02;;;;;;;0.70;0.70;;;;;;;7.00;100.00;99015.69;6106038;23;20117;-83
2023/12/21 07:34:29;;;;;;;1.10;0.75;;;;;;;7.02;100.00;99015.53;6083498;23;20391;-83
2023/12/21 07:36:56;;;;;;;1.90;1.60;;;;;;;7.00;100.00;99002.50;6107663;23;20030;-82
2023/12/21 07:39:23;;;;;;;2.00;1.40;;;;;;;7.04;100.00;98998.59;6081854;23;20052;-81
2023/12/21 07:41:50;;;;;;;2.58;1.88;;;;;;;7.06;100.00;98996.66;6058695;23;20033;-82
2023/12/21 07:44:17;;;;;;;5.40;2.85;;;;;;;7.06;100.00;98972.91;6107711;23;20026;-83
2023/12/21 07:46:44;;;;;;;0.68;0.60;;;;;;;7.04;100.00;98982.75;6083373;23;20030;-81
2023/12/21 07:49:10;;;;;;;0.82;0.82;;;;;;;7.06;100.00;98985.28;6059525;23;20451;-81
2023/12/21 07:51:40;;;;;;;1.35;0.80;;;;;;;7.07;100.00;98990.44;6106319;23;20027;-81
2023/12/21 07:54:08;;;;;;;0.68;0.68;;;;;;;7.06;100.00;98983.47;6059868;23;20383;-82
2023/12/21 07:56:34;;;;;;;1.10;1.00;;;;;;;7.09;100.00;98985.00;6035205;23;20029;-82
2023/12/21 07:59:04;;;;;;;0.60;0.60;;;;;;;7.10;100.00;98976.13;6058976;23;20042;-81
2023/12/21 08:01:31;;;;;;;1.95;0.80;;;;;;;7.11;100.00;98970.69;6058672;23;20363;-81
2023/12/21 08:03:58;;;;;;;0.60;0.60;;;;;;;7.11;100.00;98980.44;6083089;23;20045;-82
2023/12/21 08:06:25;;;;;;;0.90;0.90;;;;;;;7.12;100.00;98980.31;6058815;23;20030;-81
2023/12/21 08:08:52;;;;;;;2.17;0.50;;;;;;;7.11;100.00;98991.81;6082758;23;20018;-81
2023/12/21 08:11:24;;;;;;;0.75;0.47;;;;;;;7.09;100.00;98977.91;6058713;23;20053;-81
2023/12/21 08:13:54;;;;;;;0.40;0.40;;;;;;;7.09;100.00;98970.00;6082794;23;20741;-81
2023/12/21 08:16:21;;;;;;;1.35;0.60;;;;;;;7.13;100.00;98978.50;6107352;23;20022;-81
2023/12/21 08:18:47;;;;;;;1.20;0.70;;;;;;;7.11;100.00;98961.94;6082475;23;20030;-82
2023/12/21 08:21:14;;;;;;;0.60;0.60;;;;;;;7.12;100.00;98971.53;6083095;23;20022;-81
2023/12/21 08:23:42;;;;;;;0.60;0.60;;;;;;;7.12;100.00;98982.94;6083492;23;20030;-81
2023/12/21 08:26:09;;;;;;;0.85;0.43;;;;;;;7.16;100.00;98981.69;6083168;23;20022;-82
2023/12/21 08:28:37;;;;;;;1.30;0.73;;;;;;;7.16;100.00;98986.97;6059170;23;20023;-81
2023/12/21 08:31:04;;;;;;;0.73;0.30;;;;;;;7.16;100.00;98979.06;6083230;23;20576;-81
2023/12/21 08:33:32;;;;;;;8.48;1.88;;;;;;;7.17;100.00;98977.25;6109077;23;20032;-82
2023/12/21 08:35:58;;;;;;;2.88;0.88;;;;;;;7.17;100.00;98967.53;6061208;23;20085;-81
2023/12/21 08:38:25;;;;;;;1.65;0.82;;;;;;;7.18;100.00;98969.19;6060064;23;20462;-81
2023/12/21 08:40:52;;;;;;;1.15;0.43;;;;;;;7.20;100.00;98958.50;6083616;23;20026;-82
2023/12/21 08:43:25;;;;;;;0.70;0.40;;;;;;;7.22;100.00;98958.38;6110131;23;20378;-82
2023/12/21 08:45:51;;;;;;;0.57;0.40;;;;;;;7.20;100.00;98942.66;6062091;23;20060;-82
2023/12/21 08:48:18;;;;;;;0.95;0.70;;;;;;;7.21;100.00;98919.75;6108803;23;20045;-82
2023/12/21 08:50:45;;;;;;;0.75;0.70;;;;;;;7.20;100.00;98916.28;6060985;23;20046;-82
2023/12/21 08:53:12;;;;;;;1.35;0.30;;;;;;;7.18;100.00;98916.41;6085332;23;20757;-82
2023/12/21 08:55:39;;;;;;;0.90;0.70;;;;;;;7.21;100.00;98915.28;6133428;23;20031;-81
2023/12/21 08:58:06;;;;;;;0.52;0.52;;;;;;;7.13;100.00;98878.19;6037201;23;20022;-82
2023/12/21 09:00:32;;;;;;;0.77;0.50;;;;;;;7.18;100.00;98878.59;6108463;23;20279;-81
2023/12/21 09:03:00;;;;;;;1.13;0.80;;;;;;;7.18;100.00;98868.03;6085808;23;20081;-81
2023/12/21 09:05:26;;;;;;;0.82;0.60;;;;;;;7.22;100.00;98901.09;6108804;23;20146;-83
2023/12/21 09:07:53;;;;;;;1.58;0.73;;;;;;;7.24;100.00;98882.50;6109786;23;20018;-83
2023/12/21 09:10:20;;;;;;;1.17;0.47;;;;;;;7.24;100.00;98867.47;6060002;23;20494;-82
2023/12/21 09:12:47;;;;;;;1.45;0.60;;;;;;;7.21;100.00;98849.28;6133326;23;20034;-83
2023/12/21 09:15:14;;;;;;;1.60;0.50;;;;;;;7.22;100.00;98866.78;6108844;23;20022;-81
2023/12/21 09:17:41;;;;;;;1.10;0.52;;;;;;;7.23;100.00;98859.72;6084988;23;20045;-83
2023/12/21 09:20:09;;;;;;;0.43;0.40;;;;;;;7.24;100.00;98856.91;6109082;23;20040;-82
2023/12/21 09:22:37;;;;;;;0.60;0.55;;;;;;;7.18;100.00;98837.19;6084772;23;20351;-82
2023/12/21 09:25:04;;;;;;;0.40;0.40;;;;;;;7.26;100.00;98827.75;6109165;23;20093;-83
2023/12/21 09:27:32;;;;;;;0.73;0.60;;;;;;;7.22;100.00;98834.25;6083285;23;20061;-82
2023/12/21 09:29:59;;;;;;;0.65;0.60;;;;;;;7.26;100.00;98814.53;6084702;23;20018;-81
2023/12/21 09:32:26;;;;;;;2.15;0.65;;;;;;;7.22;100.00;98832.44;6083818;23;20041;-82
2023/12/21 09:34:53;;;;;;;0.95;0.50;;;;;;;7.26;100.00;98817.19;6036919;23;20030;-81
2023/12/21 09:37:20;;;;;;;2.15;0.98;;;;;;;7.31;100.00;98820.25;6084882;23;20406;-82
2023/12/21 09:39:46;;;;;;;1.08;0.55;;;;;;;7.26;100.00;98823.28;6035943;23;20026;-82
2023/12/21 09:42:14;;;;;;;3.22;1.20;;;;;;;7.31;100.00;98820.25;6083543;23;20026;-83
2023/12/21 09:44:49;;;;;;;0.40;0.40;;;;;;;7.26;100.00;98823.28;6061698;23;20026;-81
2023/12/21 09:47:19;;;;;;;1.08;0.60;;;;;;;7.30;100.00;98811.50;6083981;23;20026;-83
2023/12/21 09:49:47;;;;;;;0.68;0.60;;;;;;;7.27;100.00;98798.53;6083975;23;20392;-83
2023/12/21 09:52:17;;;;;;;1.33;0.75;;;;;;;7.30;100.00;98808.00;6083969;23;21045;-81
2023/12/21 09:54:46;;;;;;;0.77;0.50;;;;;;;7.32;100.00;98788.38;6084455;23;20019;-81
2023/12/21 09:57:14;;;;;;;0.68;0.50;;;;;;;7.35;100.00;98769.66;6083724;23;20057;-81
2023/12/21 09:59:41;;;;;;;1.20;0.70;;;;;;;7.38;100.00;98726.28;6059938;23;20018;-81
2023/12/21 10:02:12;;;;;;;2.55;0.93;;;;;;;7.36;100.00;98744.06;6108638;23;20033;-82
2023/12/21 10:04:43;;;;;;;1.15;0.82;;;;;;;7.37;100.00;98735.97;6060678;23;20152;-81
2023/12/21 10:07:10;;;;;;;1.10;0.70;;;;;;;7.41;100.00;98738.38;6083783;23;20026;-81
2023/12/21 10:09:37;;;;;;;0.60;0.60;;;;;;;7.41;100.00;98728.63;6084133;23;20078;-81
2023/12/21 10:12:05;;;;;;;1.25;0.70;;;;;;;7.38;100.00;98718.34;6109243;23;20093;-81
2023/12/21 10:14:32;;;;;;;2.08;1.15;;;;;;;7.38;100.00;98707.78;6108218;23;20071;-82
2023/12/21 10:16:59;;;;;;;3.40;0.98;;;;;;;7.37;100.00;98717.50;6059991;23;20026;-81
2023/12/21 10:19:26;;;;;;;2.80;0.50;;;;;;;7.39;100.00;98699.69;6059091;23;20038;-82
2023/12/21 10:21:53;;;;;;;0.80;0.60;;;;;;;7.41;100.00;98696.09;6083898;23;20619;-82
2023/12/21 10:24:20;;;;;;;1.08;0.60;;;;;;;7.44;100.00;98686.06;6108895;23;20836;-82
2023/12/21 10:26:47;;;;;;;0.52;0.52;;;;;;;7.46;100.00;98651.59;6108447;23;20022;-81
2023/12/21 10:29:17;;;;;;;0.40;0.40;;;;;;;7.49;100.00;98640.75;6081168;23;20029;-81
2023/12/21 10:31:45;;;;;;;2.47;0.90;;;;;;;7.50;100.00;98645.88;6083547;23;20065;-81
2023/12/21 10:34:12;;;;;;;0.90;0.50;;;;;;;7.52;100.00;98622.78;6083983;23;20114;-82
2023/12/21 10:36:43;;;;;;;0.77;0.70;;;;;;;7.53;100.00;98618.31;6132864;23;20026;-81
2023/12/21 10:39:14;;;;;;;0.90;0.80;;;;;;;7.51;100.00;98615.03;6082864;23;20455;-81
2023/12/21 10:41:43;;;;;;;1.42;0.63;;;;;;;7.55;100.00;98596.06;6083620;23;20443;-81
2023/12/21 10:44:15;;;;;;;2.97;0.63;;;;;;;7.53;100.00;98562.84;6060053;23;20098;-81
2023/12/21 10:46:42;;;;;;;0.60;0.60;;;;;;;7.57;100.00;98570.34;6060642;23;20022;-81
2023/12/21 10:49:10;;;;;;;3.65;0.63;;;;;;;7.58;100.00;98564.09;6059354;23;20997;-81
2023/12/21 10:51:39;;;;;;;0.50;0.50;;;;;;;7.58;100.00;98569.38;6106987;23;20022;-82
2023/12/21 10:54:11;;;;;;;0.68;0.60;;;;;;;7.55;100.00;98584.69;6083655;23;20038;-81
2023/12/21 10:56:39;;;;;;;0.50;0.50;;;;;;;7.56;100.00;98589.00;6107173;23;20018;-81
2023/12/21 10:59:08;;;;;;;1.27;0.70;;;;;;;7.56;100.00;98587.19;6083704;23;20639;-81
2023/12/21 11:01:36;;;;;;;0.45;0.30;;;;;;;7.59;100.00;98571.03;6083719;23;20053;-81
2023/12/21 11:04:03;;;;;;;0.57;0.57;;;;;;;7.61;100.00;98574.38;6083286;23;20455;-82
2023/12/21 11:06:31;;;;;;;0.60;0.50;;;;;;;7.64;100.00;98570.59;6082573;23;20029;-82
2023/12/21 11:08:58;;;;;;;1.67;0.90;;;;;;;7.69;100.00;98575.44;6083002;23;20020;-81
2023/12/21 11:11:25;;;;;;;0.93;0.50;;;;;;;7.66;100.00;98550.16;6107111;23;20637;-82
2023/12/21 11:13:54;;;;;;;0.57;0.57;;;;;;;7.66;100.00;98542.22;6107694;23;20355;-81
2023/12/21 11:16:44;;;;;;;2.35;0.60;;;;;;;7.60;100.00;98537.50;6083346;23;20101;-82
2023/12/21 11:19:14;;;;;;;1.15;0.60;;;;;;;7.59;100.00;98536.69;6035316;23;20058;-81
2023/12/21 11:21:41;;;;;;;1.38;0.68;;;;;;;7.59;100.00;98523.47;6059467;23;20034;-83
2023/12/21 11:24:19;;;;;;;0.60;0.60;;;;;;;7.64;100.00;98536.25;6060275;23;20470;-81
2023/12/21 11:26:46;;;;;;;1.45;1.05;;;;;;;7.63;100.00;98531.94;6083050;23;20101;-81
2023/12/21 11:29:13;;;;;;;0.90;0.70;;;;;;;7.63;100.00;98507.31;6035314;23;20036;-81
2023/12/21 11:31:41;;;;;;;1.48;0.98;;;;;;;7.63;100.00;98500.22;6083751;23;20490;-81
2023/12/21 11:34:16;;;;;;;1.13;0.90;;;;;;;7.62;100.00;98493.28;6084193;23;20093;-81